createdAt,value
2017-10-02T00:01:52.116Z,65.31
2017-10-02T00:04:22.143Z,65.72
2017-10-02T00:06:51.363Z,65.59
2017-10-02T00:09:21.352Z,65.45
2017-10-02T00:11:50.558Z,65.54
2017-10-02T00:14:19.773Z,65.43
2017-10-02T00:16:49.800Z,65.36
2017-10-02T00:19:18.976Z,65.37
2017-10-02T00:21:48.182Z,65.63
2017-10-02T00:24:17.403Z,65.63
2017-10-02T00:26:46.620Z,65.68
2017-10-02T00:29:15.814Z,65.57
2017-10-02T00:31:45.026Z,66.04
2017-10-02T00:34:14.246Z,65.93
2017-10-02T00:36:43.443Z,65.90
2017-10-02T00:39:12.666Z,65.88
2017-10-02T00:41:41.868Z,66.27
2017-10-02T00:44:11.057Z,66.27
2017-10-02T00:46:40.259Z,66.41
2017-10-02T00:49:09.499Z,66.19
2017-10-02T00:51:39.460Z,66.61
2017-10-02T00:54:08.665Z,66.08
2017-10-02T00:56:37.894Z,66.11
2017-10-02T00:59:07.095Z,66.05
2017-10-02T01:01:36.299Z,66.18
2017-10-02T01:04:05.502Z,66.40
2017-10-02T01:06:34.735Z,66.04
2017-10-02T01:09:03.918Z,66.38
2017-10-02T01:11:33.127Z,65.89
2017-10-02T01:14:02.351Z,66.60
2017-10-02T01:16:32.319Z,66.34
2017-10-02T01:19:01.529Z,65.91
2017-10-02T01:21:30.733Z,66.39
2017-10-02T01:23:59.946Z,66.10
2017-10-02T01:26:29.156Z,66.00
2017-10-02T01:28:58.372Z,66.02
2017-10-02T01:31:27.580Z,65.85
2017-10-02T01:33:56.930Z,66.45
2017-10-02T01:36:26.139Z,65.88
2017-10-02T01:38:55.350Z,65.90
2017-10-02T01:41:25.331Z,65.94
2017-10-02T01:43:54.530Z,66.05
2017-10-02T01:46:23.763Z,65.83
2017-10-02T01:48:53.726Z,66.55
2017-10-02T01:51:22.958Z,66.35
2017-10-02T01:53:52.159Z,66.69
2017-10-02T01:56:21.356Z,66.15
2017-10-02T01:58:50.578Z,66.49
2017-10-02T02:01:19.783Z,66.37
2017-10-02T02:03:49.003Z,66.91
2017-10-02T02:06:18.214Z,66.66
2017-10-02T02:08:47.451Z,67.70
2017-10-02T02:11:16.645Z,67.64
2017-10-02T02:13:46.659Z,68.42
2017-10-02T02:16:15.865Z,67.99
2017-10-02T02:18:45.847Z,68.90
2017-10-02T02:21:15.063Z,68.32
2017-10-02T02:23:44.278Z,69.07
2017-10-02T02:26:14.495Z,69.10
2017-10-02T02:28:44.463Z,70.61
2017-10-02T02:31:13.666Z,71.22
2017-10-02T02:33:42.883Z,71.24
2017-10-02T02:36:12.100Z,71.92
2017-10-02T02:38:41.304Z,72.03
2017-10-02T02:41:11.261Z,72.32
2017-10-02T02:43:40.469Z,73.74
2017-10-02T02:46:09.684Z,74.72
2017-10-02T02:48:38.858Z,74.51
2017-10-02T02:51:08.097Z,75.47
2017-10-02T02:53:37.291Z,75.68
2017-10-02T02:56:06.483Z,75.97
2017-10-02T02:58:35.697Z,75.89
2017-10-02T03:01:05.657Z,75.80
2017-10-02T03:03:34.883Z,76.40
2017-10-02T03:06:04.071Z,76.47
2017-10-02T03:08:33.275Z,76.32
2017-10-02T03:11:02.486Z,76.30
2017-10-02T03:13:31.682Z,76.59
2017-10-02T03:16:00.975Z,76.61
2017-10-02T03:18:30.183Z,76.64
2017-10-02T03:20:59.390Z,76.81
2017-10-02T03:23:29.364Z,77.08
2017-10-02T03:25:58.579Z,77.45
2017-10-02T03:28:27.783Z,77.44
2017-10-02T03:30:57.022Z,77.27
2017-10-02T03:33:26.222Z,77.32
2017-10-02T03:35:55.403Z,76.89
2017-10-02T03:38:25.386Z,77.06
2017-10-02T03:40:54.714Z,76.75
2017-10-02T03:43:24.687Z,77.06
2017-10-02T03:45:53.887Z,76.97
2017-10-02T03:48:23.084Z,76.83
2017-10-02T03:50:52.290Z,76.71
2017-10-02T03:53:21.502Z,76.88
2017-10-02T03:55:50.715Z,77.02
2017-10-02T03:58:20.672Z,77.21
2017-10-02T04:00:49.889Z,77.43
2017-10-02T04:03:19.107Z,77.63
2017-10-02T04:05:48.314Z,78.63
2017-10-02T04:08:17.526Z,78.99
2017-10-02T04:10:47.506Z,78.62
2017-10-02T04:13:16.698Z,79.06
2017-10-02T04:15:45.956Z,78.43
2017-10-02T04:18:15.268Z,78.79
2017-10-02T04:20:44.467Z,79.39
2017-10-02T04:23:13.679Z,78.86
2017-10-02T04:25:42.894Z,79.02
2017-10-02T04:28:12.103Z,79.02
2017-10-02T04:30:42.063Z,79.43
2017-10-02T04:33:11.289Z,78.90
2017-10-02T04:35:40.470Z,78.92
2017-10-02T04:38:09.695Z,78.99
2017-10-02T04:40:39.666Z,79.32
2017-10-02T04:43:08.876Z,79.64
2017-10-02T04:45:38.907Z,79.50
2017-10-02T04:48:08.142Z,79.73
2017-10-02T04:50:37.395Z,79.87
2017-10-02T04:53:06.602Z,79.86
2017-10-02T04:55:37.254Z,80.22
2017-10-02T04:58:06.467Z,80.27
2017-10-02T05:00:35.665Z,80.71
2017-10-02T05:03:04.867Z,80.77
2017-10-02T05:05:34.855Z,81.22
2017-10-02T05:08:04.087Z,81.26
2017-10-02T05:10:34.043Z,81.14
2017-10-02T05:13:03.266Z,81.40
2017-10-02T05:15:32.469Z,81.61
2017-10-02T05:18:01.691Z,81.60
2017-10-02T05:20:31.671Z,81.92
2017-10-02T05:23:00.868Z,82.09
2017-10-02T05:25:30.111Z,82.21
2017-10-02T05:28:00.075Z,82.12
2017-10-02T05:30:29.292Z,81.98
2017-10-02T05:32:58.476Z,82.15
2017-10-02T05:35:27.681Z,82.32
2017-10-02T05:37:56.875Z,82.47
2017-10-02T05:40:26.116Z,82.63
2017-10-02T05:42:55.323Z,82.80
2017-10-02T05:45:25.292Z,82.89
2017-10-02T05:47:54.500Z,82.68
2017-10-02T05:50:23.863Z,82.80
2017-10-02T05:52:53.088Z,82.83
2017-10-02T05:55:22.309Z,82.90
2017-10-02T05:57:52.287Z,83.34
2017-10-02T06:00:21.502Z,83.52
2017-10-02T06:02:50.734Z,83.81
2017-10-02T06:05:20.714Z,84.47
2017-10-02T06:07:49.947Z,84.67
2017-10-02T06:10:19.166Z,85.26
2017-10-02T06:12:48.383Z,85.52
2017-10-02T06:15:17.651Z,85.82
2017-10-02T06:17:46.858Z,85.99
2017-10-02T06:20:16.072Z,86.02
2017-10-02T06:22:45.307Z,86.36
2017-10-02T06:25:14.550Z,86.53
2017-10-02T06:27:43.748Z,86.74
2017-10-02T06:30:13.031Z,86.83
2017-10-02T06:32:42.231Z,86.79
2017-10-02T06:35:11.484Z,86.81
2017-10-02T06:37:40.675Z,86.80
2017-10-02T06:40:10.022Z,86.84
2017-10-02T06:42:39.241Z,86.73
2017-10-02T06:45:08.448Z,86.77
2017-10-02T06:47:37.656Z,86.84
2017-10-02T06:50:06.902Z,86.73
2017-10-02T06:52:36.083Z,86.72
2017-10-02T06:55:06.043Z,86.57
2017-10-02T06:57:35.288Z,86.52
2017-10-02T07:00:04.499Z,86.68
2017-10-02T07:02:34.499Z,86.63
2017-10-02T07:05:03.694Z,86.55
2017-10-02T07:07:32.907Z,86.64
2017-10-02T07:10:02.887Z,86.32
2017-10-02T07:12:32.086Z,86.58
2017-10-02T07:15:01.277Z,86.70
2017-10-02T07:17:30.484Z,86.86
2017-10-02T07:19:59.714Z,86.77
2017-10-02T07:22:29.679Z,86.54
2017-10-02T07:24:59.046Z,86.71
2017-10-02T07:27:29.005Z,86.90
2017-10-02T07:29:58.263Z,86.87
2017-10-02T07:32:27.459Z,87.29
2017-10-02T07:34:57.571Z,87.71
2017-10-02T07:37:27.540Z,87.94
2017-10-02T07:39:56.765Z,88.29
2017-10-02T07:42:25.996Z,88.39
2017-10-02T07:44:55.235Z,88.26
2017-10-02T07:47:24.642Z,88.45
2017-10-02T07:49:53.883Z,88.49
2017-10-02T07:52:23.852Z,88.79
2017-10-02T07:54:53.078Z,88.79
2017-10-02T07:57:23.058Z,88.83
2017-10-02T07:59:52.263Z,88.91
2017-10-02T08:02:21.500Z,88.78
2017-10-02T08:04:51.463Z,88.84
2017-10-02T08:07:20.670Z,88.71
2017-10-02T08:09:49.895Z,88.62
2017-10-02T08:12:19.103Z,88.26
2017-10-02T08:14:49.097Z,88.30
2017-10-02T08:17:18.400Z,88.22
2017-10-02T08:19:47.618Z,88.34
2017-10-02T08:22:16.865Z,88.19
2017-10-02T08:24:46.101Z,87.99
2017-10-02T08:27:15.288Z,87.90
2017-10-02T08:29:44.545Z,87.89
2017-10-02T08:32:13.750Z,87.93
2017-10-02T08:34:42.938Z,87.69
2017-10-02T08:37:12.164Z,87.68
2017-10-02T08:39:41.362Z,87.82
2017-10-02T08:42:10.587Z,87.69
2017-10-02T08:44:39.793Z,87.37
2017-10-02T08:47:08.998Z,86.98
2017-10-02T08:49:38.988Z,87.46
2017-10-02T08:52:09.708Z,87.39
2017-10-02T08:54:38.930Z,87.41
2017-10-02T08:57:09.630Z,87.45
2017-10-02T08:59:38.850Z,87.03
2017-10-02T09:02:08.060Z,87.28
2017-10-02T09:04:37.263Z,87.09
2017-10-02T09:07:07.240Z,87.09
2017-10-02T09:09:36.451Z,86.70
2017-10-02T09:12:05.715Z,86.01
2017-10-02T09:14:35.260Z,86.19
2017-10-02T09:17:04.459Z,86.37
2017-10-02T09:19:33.665Z,86.41
2017-10-02T09:22:02.908Z,86.24
2017-10-02T09:24:32.119Z,86.04
2017-10-02T09:27:01.306Z,85.67
2017-10-02T09:29:30.594Z,85.70
2017-10-02T09:31:59.811Z,85.63
2017-10-02T09:34:28.991Z,85.11
2017-10-02T09:36:58.327Z,85.15
2017-10-02T09:39:27.524Z,85.16
2017-10-02T09:41:56.724Z,85.13
2017-10-02T09:44:25.922Z,85.28
2017-10-02T09:46:55.157Z,85.29
2017-10-02T09:49:24.399Z,85.33
2017-10-02T09:51:53.595Z,85.47
2017-10-02T09:54:22.817Z,85.53
2017-10-02T09:56:52.027Z,85.53
2017-10-02T09:59:21.230Z,84.74
2017-10-02T10:01:51.295Z,84.66
2017-10-02T10:04:20.502Z,83.94
2017-10-02T10:06:49.870Z,83.49
2017-10-02T10:09:19.095Z,83.37
2017-10-02T10:11:48.299Z,82.80
2017-10-02T10:14:17.533Z,82.06
2017-10-02T10:16:47.524Z,82.04
2017-10-02T10:19:16.751Z,82.19
2017-10-02T10:21:46.728Z,81.59
2017-10-02T10:24:15.976Z,81.33
2017-10-02T10:26:45.958Z,81.15
2017-10-02T10:29:15.174Z,81.25
2017-10-02T10:31:44.406Z,81.17
2017-10-02T10:34:13.600Z,81.71
2017-10-02T10:36:42.823Z,80.86
2017-10-02T10:39:12.051Z,81.12
2017-10-02T10:41:41.251Z,81.01
2017-10-02T10:44:10.551Z,80.40
2017-10-02T10:46:39.773Z,79.79
2017-10-02T10:49:09.764Z,80.43
2017-10-02T10:51:38.948Z,79.38
2017-10-02T10:54:08.167Z,79.32
2017-10-02T10:56:38.874Z,78.88
2017-10-02T10:59:08.114Z,77.76
2017-10-02T11:01:38.115Z,77.98
2017-10-02T11:04:07.315Z,78.30
2017-10-02T11:06:37.312Z,78.04
2017-10-02T11:09:06.511Z,76.79
2017-10-02T11:11:35.725Z,76.97
2017-10-02T11:14:04.937Z,76.72
2017-10-02T11:16:34.172Z,76.07
2017-10-02T11:19:03.386Z,75.73
2017-10-02T11:21:32.590Z,74.38
2017-10-02T11:24:01.811Z,74.60
2017-10-02T11:26:31.054Z,75.34
2017-10-02T11:29:00.274Z,73.75
2017-10-02T11:31:29.489Z,73.55
2017-10-02T11:33:58.728Z,73.87
2017-10-02T11:36:27.950Z,73.85
2017-10-02T11:38:57.127Z,73.54
2017-10-02T11:41:26.352Z,71.54
2017-10-02T11:43:55.584Z,71.13
2017-10-02T11:46:24.935Z,71.96
2017-10-02T11:48:54.131Z,72.37
2017-10-02T11:51:23.355Z,72.67
2017-10-02T11:53:52.586Z,71.78
2017-10-02T11:56:22.583Z,70.70
2017-10-02T11:58:51.813Z,71.24
2017-10-02T12:01:21.837Z,70.04
2017-10-02T12:03:51.088Z,69.41
2017-10-02T12:06:20.311Z,69.67
2017-10-02T12:08:49.552Z,68.52
2017-10-02T12:11:18.749Z,67.01
2017-10-02T12:13:47.967Z,67.15
2017-10-02T12:16:17.192Z,66.42
2017-10-02T12:18:46.480Z,65.81
2017-10-02T12:21:15.695Z,65.25
2017-10-02T12:23:44.924Z,64.75
2017-10-02T12:26:14.139Z,65.38
2017-10-02T12:28:43.383Z,65.56
2017-10-02T12:31:12.577Z,65.79
2017-10-02T12:33:41.798Z,65.30
2017-10-02T12:36:11.801Z,64.89
2017-10-02T12:38:41.842Z,63.85
2017-10-02T12:41:11.827Z,63.51
2017-10-02T12:43:41.076Z,63.96
2017-10-02T12:46:10.274Z,64.47
2017-10-02T12:48:39.503Z,64.29
2017-10-02T12:51:08.753Z,63.76
2017-10-02T12:53:37.964Z,65.05
2017-10-02T12:56:07.182Z,65.30
2017-10-02T12:58:36.406Z,65.91
2017-10-02T13:01:05.770Z,66.65
2017-10-02T13:03:34.994Z,66.25
2017-10-02T13:06:04.251Z,66.76
2017-10-02T13:08:33.458Z,66.76
2017-10-02T13:11:02.687Z,65.33
2017-10-02T13:13:31.923Z,65.25
2017-10-02T13:16:01.894Z,66.35
2017-10-02T13:18:31.243Z,66.83
2017-10-02T13:21:01.239Z,67.28
2017-10-02T13:23:30.461Z,68.14
2017-10-02T13:25:59.699Z,66.58
2017-10-02T13:28:28.928Z,65.65
2017-10-02T13:30:58.167Z,66.46
2017-10-02T13:33:27.823Z,64.36
2017-10-02T13:35:57.039Z,63.58
2017-10-02T13:38:27.030Z,62.22
2017-10-02T13:40:56.280Z,62.44
2017-10-02T13:43:26.259Z,62.35
2017-10-02T13:45:55.504Z,61.00
2017-10-02T13:48:24.810Z,62.24
2017-10-02T13:50:53.964Z,60.79
2017-10-02T13:53:23.990Z,60.78
2017-10-02T13:55:53.239Z,60.69
2017-10-02T13:58:22.450Z,61.83
2017-10-02T14:00:51.713Z,61.53
2017-10-02T14:03:21.147Z,60.14
2017-10-02T14:05:50.347Z,60.30
2017-10-02T14:08:19.645Z,62.06
2017-10-02T14:10:48.907Z,62.28
2017-10-02T14:13:18.167Z,61.95
2017-10-02T14:15:47.403Z,62.10
2017-10-02T14:18:16.652Z,61.64
2017-10-02T14:20:45.843Z,61.23
2017-10-02T14:23:15.094Z,60.92
2017-10-02T14:25:44.315Z,61.24
2017-10-02T14:28:13.532Z,61.87
2017-10-02T14:30:42.775Z,61.45
2017-10-02T14:33:12.047Z,61.95
2017-10-02T14:35:41.246Z,62.37
2017-10-02T14:38:10.458Z,62.05
2017-10-02T14:40:40.450Z,61.96
2017-10-02T14:43:09.675Z,62.80
2017-10-02T14:45:39.746Z,62.40
2017-10-02T14:48:08.971Z,60.84
2017-10-02T14:50:38.186Z,60.46
2017-10-02T14:53:08.167Z,60.82
2017-10-02T14:55:37.416Z,59.67
2017-10-02T14:58:06.643Z,59.79
2017-10-02T15:00:35.863Z,59.50
2017-10-02T15:03:05.275Z,59.91
2017-10-02T15:05:34.474Z,59.11
2017-10-02T15:08:03.749Z,59.73
2017-10-02T15:10:32.970Z,59.21
2017-10-02T15:13:02.183Z,59.01
2017-10-02T15:15:32.162Z,59.62
2017-10-02T15:18:01.451Z,60.39
2017-10-02T15:20:30.696Z,60.09
2017-10-02T15:22:59.928Z,60.39
2017-10-02T15:25:29.168Z,61.00
2017-10-02T15:27:58.377Z,60.60
2017-10-02T15:30:27.667Z,59.21
2017-10-02T15:32:56.880Z,59.62
2017-10-02T15:35:26.885Z,59.36
2017-10-02T15:37:56.088Z,59.31
2017-10-02T15:40:25.320Z,59.58
2017-10-02T15:42:54.551Z,59.57
2017-10-02T15:45:23.786Z,61.05
2017-10-02T15:47:53.015Z,58.40
2017-10-02T15:50:22.232Z,59.39
2017-10-02T15:52:51.565Z,57.84
2017-10-02T15:55:20.785Z,57.95
2017-10-02T15:57:50.768Z,58.67
2017-10-02T16:00:20.011Z,58.37
2017-10-02T16:02:49.993Z,58.57
2017-10-02T16:05:19.254Z,59.09
2017-10-02T16:07:48.484Z,58.57
2017-10-02T16:10:17.685Z,59.14
2017-10-02T16:12:46.893Z,59.70
2017-10-02T16:15:16.115Z,59.42
2017-10-02T16:17:46.120Z,59.86
2017-10-02T16:20:16.084Z,59.44
2017-10-02T16:22:45.287Z,60.26
2017-10-02T16:25:14.559Z,60.88
2017-10-02T16:27:43.773Z,60.94
2017-10-02T16:30:13.008Z,60.99
2017-10-02T16:32:42.231Z,60.27
2017-10-02T16:35:12.203Z,60.96
2017-10-02T16:37:41.500Z,61.17
2017-10-02T16:40:10.703Z,61.59
2017-10-02T16:42:40.307Z,61.83
2017-10-02T16:45:09.526Z,61.95
2017-10-02T16:47:38.734Z,61.95
2017-10-02T16:50:08.750Z,61.96
2017-10-02T16:52:38.761Z,62.45
2017-10-02T16:55:08.016Z,62.14
2017-10-02T16:57:37.241Z,62.18
2017-10-02T17:00:06.420Z,62.71
2017-10-02T17:02:35.663Z,62.03
2017-10-02T17:05:05.635Z,62.65
2017-10-02T17:07:34.893Z,63.01
2017-10-02T17:10:04.889Z,62.81
2017-10-02T17:12:34.870Z,62.89
2017-10-02T17:15:04.108Z,62.79
2017-10-02T17:17:33.333Z,63.64
2017-10-02T17:20:02.563Z,63.01
2017-10-02T17:22:32.591Z,64.03
2017-10-02T17:25:01.788Z,63.56
2017-10-02T17:27:31.015Z,63.51
2017-10-02T17:30:01.006Z,64.13
2017-10-02T17:32:30.236Z,64.09
2017-10-02T17:34:59.483Z,64.00
2017-10-02T17:37:28.701Z,64.57
2017-10-02T17:39:57.919Z,64.38
2017-10-02T17:42:27.951Z,64.11
2017-10-02T17:44:57.202Z,64.38
2017-10-02T17:47:26.411Z,64.60
2017-10-02T17:49:55.662Z,64.42
2017-10-02T17:52:24.899Z,64.71
2017-10-02T17:54:54.102Z,64.84
2017-10-02T17:57:23.360Z,64.68
2017-10-02T17:59:52.578Z,65.02
2017-10-02T18:02:21.837Z,65.59
2017-10-02T18:04:51.059Z,65.61
2017-10-02T18:07:20.308Z,65.32
2017-10-02T18:09:50.300Z,65.43
2017-10-02T18:12:19.533Z,65.31
2017-10-02T18:14:49.544Z,65.50
2017-10-02T18:17:19.592Z,65.27
2017-10-02T18:19:48.863Z,65.25
2017-10-02T18:22:18.839Z,65.47
2017-10-02T18:24:48.097Z,65.71
2017-10-02T18:27:18.126Z,66.68
2017-10-02T18:29:47.319Z,66.86
2017-10-02T18:32:16.560Z,66.01
2017-10-02T18:34:45.775Z,66.33
2017-10-02T18:37:15.788Z,66.78
2017-10-02T18:39:45.035Z,66.61
2017-10-02T18:42:14.273Z,66.87
2017-10-02T18:44:43.477Z,66.88
2017-10-02T18:47:12.752Z,67.29
2017-10-02T18:49:42.764Z,67.18
2017-10-02T18:52:11.984Z,67.03
2017-10-02T18:54:41.259Z,67.25
2017-10-02T18:57:10.451Z,67.93
2017-10-02T18:59:39.683Z,67.56
2017-10-02T19:02:08.897Z,67.85
2017-10-02T19:04:38.927Z,67.63
2017-10-02T19:07:08.934Z,68.33
2017-10-02T19:09:38.931Z,68.22
2017-10-02T19:12:09.160Z,68.24
2017-10-02T19:14:38.357Z,67.92
2017-10-02T19:17:08.365Z,68.12
2017-10-02T19:19:37.586Z,68.54
2017-10-02T19:22:06.788Z,68.72
2017-10-02T19:24:36.015Z,68.67
2017-10-02T19:27:05.353Z,68.62
2017-10-02T19:29:34.618Z,68.71
2017-10-02T19:32:03.862Z,69.25
2017-10-02T19:34:33.093Z,69.15
2017-10-02T19:37:02.291Z,69.70
2017-10-02T19:39:31.479Z,70.22
2017-10-02T19:42:00.734Z,70.48
2017-10-02T19:44:29.939Z,70.61
2017-10-02T19:46:59.189Z,70.90
2017-10-02T19:49:28.490Z,71.04
2017-10-02T19:51:57.701Z,71.16
2017-10-02T19:54:26.938Z,71.36
2017-10-02T19:56:56.147Z,72.28
2017-10-02T19:59:26.154Z,72.38
2017-10-02T20:01:56.167Z,72.66
2017-10-02T20:04:25.429Z,73.43
2017-10-02T20:06:54.661Z,74.34
2017-10-02T20:09:23.884Z,74.45
2017-10-02T20:11:53.152Z,74.20
2017-10-02T20:14:22.397Z,75.23
2017-10-02T20:16:51.603Z,75.27
2017-10-02T20:19:20.854Z,75.34
2017-10-02T20:21:50.864Z,75.40
2017-10-02T20:24:20.108Z,75.66
2017-10-02T20:26:49.316Z,75.92
2017-10-02T20:29:18.568Z,75.35
2017-10-02T20:31:48.561Z,75.63
2017-10-02T20:34:17.847Z,75.95
2017-10-02T20:36:47.064Z,75.97
2017-10-02T20:39:16.316Z,75.82
2017-10-02T20:41:45.547Z,75.81
2017-10-02T20:44:14.764Z,76.36
2017-10-02T20:46:43.975Z,76.48
2017-10-02T20:49:13.195Z,76.42
2017-10-02T20:51:42.435Z,76.34
2017-10-02T20:54:11.630Z,76.29
2017-10-02T20:56:40.876Z,77.00
2017-10-02T20:59:10.852Z,76.57
2017-10-02T21:01:40.078Z,76.52
2017-10-02T21:04:10.062Z,76.51
2017-10-02T21:06:39.344Z,76.83
2017-10-02T21:09:08.586Z,76.59
2017-10-02T21:11:38.571Z,77.25
2017-10-02T21:14:07.807Z,77.34
2017-10-02T21:16:37.074Z,78.22
2017-10-02T21:19:07.044Z,78.12
2017-10-02T21:21:36.255Z,77.86
2017-10-02T21:24:05.482Z,78.76
2017-10-02T21:26:34.717Z,78.86
2017-10-02T21:29:04.703Z,78.15
2017-10-02T21:31:33.912Z,78.88
2017-10-02T21:34:03.214Z,78.73
2017-10-02T21:36:32.415Z,78.71
2017-10-02T21:39:02.411Z,79.04
2017-10-02T21:41:31.624Z,79.59
2017-10-02T21:44:00.839Z,79.97
2017-10-02T21:46:30.832Z,79.46
2017-10-02T21:49:00.063Z,79.08
2017-10-02T21:51:29.270Z,79.52
2017-10-02T21:53:58.550Z,79.61
2017-10-02T21:56:28.523Z,80.20
2017-10-02T21:58:57.738Z,79.42
2017-10-02T22:01:26.968Z,80.20
2017-10-02T22:03:56.195Z,79.61
2017-10-02T22:06:25.423Z,79.87
2017-10-02T22:08:54.638Z,79.72
2017-10-02T22:11:23.882Z,79.74
2017-10-02T22:13:53.079Z,80.50
2017-10-02T22:16:22.296Z,80.23
2017-10-02T22:18:51.528Z,80.63
2017-10-02T22:21:20.724Z,80.87
2017-10-02T22:23:49.937Z,81.82
2017-10-02T22:26:19.925Z,81.72
2017-10-02T22:28:49.131Z,81.47
2017-10-02T22:31:18.374Z,81.58
2017-10-02T22:33:47.630Z,82.19
2017-10-02T22:36:16.879Z,82.45
2017-10-02T22:38:46.087Z,82.37
2017-10-02T22:41:15.286Z,82.89
2017-10-02T22:43:44.516Z,82.74
2017-10-02T22:46:13.738Z,82.98
2017-10-02T22:48:42.983Z,83.76
2017-10-02T22:51:12.226Z,84.17
2017-10-02T22:53:42.214Z,84.88
2017-10-02T22:56:11.446Z,84.77
2017-10-02T22:58:41.431Z,85.34
2017-10-02T23:01:10.628Z,85.27
2017-10-02T23:03:39.863Z,86.11
2017-10-02T23:06:09.877Z,85.91
2017-10-02T23:08:39.851Z,86.34
2017-10-02T23:11:09.099Z,86.38
2017-10-02T23:13:39.059Z,86.30
2017-10-02T23:16:08.282Z,86.70
2017-10-02T23:18:37.498Z,86.60
2017-10-02T23:21:07.495Z,87.02
2017-10-02T23:23:36.715Z,86.63
2017-10-02T23:26:05.920Z,86.89
2017-10-02T23:28:35.133Z,86.97
2017-10-02T23:31:04.374Z,87.46
2017-10-02T23:33:33.595Z,87.53
2017-10-02T23:36:03.570Z,87.43
2017-10-02T23:38:32.807Z,87.52
2017-10-02T23:41:02.853Z,87.37
2017-10-02T23:43:32.084Z,87.58
2017-10-02T23:46:01.307Z,87.19
2017-10-02T23:48:30.513Z,87.29
2017-10-02T23:51:00.501Z,87.29
2017-10-02T23:53:29.756Z,87.24
2017-10-02T23:55:58.971Z,87.21
2017-10-02T23:58:28.183Z,86.80
